createdAt,value
2022-11-16T00:00:32.397Z,994.3
2022-11-16T00:01:32.399Z,994.3
2022-11-16T00:02:32.544Z,994.3
2022-11-16T00:03:32.402Z,994.3
2022-11-16T00:04:32.442Z,994.3
2022-11-16T00:05:32.399Z,994.3
2022-11-16T00:06:32.402Z,994.3
2022-11-16T00:07:32.587Z,994.3
2022-11-16T00:08:32.885Z,994.3
2022-11-16T00:09:32.405Z,994.3
2022-11-16T00:10:32.401Z,994.3
2022-11-16T00:11:32.405Z,994.3
2022-11-16T00:12:32.400Z,994.3
2022-11-16T00:13:32.405Z,994.3
2022-11-16T00:14:32.395Z,994.3
2022-11-16T00:15:32.401Z,994.3
2022-11-16T00:16:32.429Z,994.3
2022-11-16T00:17:32.401Z,994.3
2022-11-16T00:18:32.800Z,994.3
2022-11-16T00:19:32.401Z,994.3
2022-11-16T00:20:32.418Z,994.3
2022-11-16T00:21:32.405Z,994.3
2022-11-16T00:22:32.414Z,994.3
2022-11-16T00:23:32.408Z,994.2
2022-11-16T00:24:32.416Z,994.2
2022-11-16T00:25:32.404Z,994.3
2022-11-16T00:26:32.405Z,994.2
2022-11-16T00:27:32.411Z,994.2
2022-11-16T00:29:32.429Z,994.2
2022-11-16T00:30:32.424Z,994.2
2022-11-16T00:31:32.411Z,994.2
2022-11-16T00:32:32.408Z,994.2
2022-11-16T00:33:32.448Z,994.1
2022-11-16T00:34:32.425Z,994.1
2022-11-16T00:35:32.401Z,994.1
2022-11-16T00:36:32.407Z,994.2
2022-11-16T00:37:32.409Z,994.1
2022-11-16T00:38:32.843Z,994.2
2022-11-16T00:39:32.409Z,994.1
2022-11-16T00:40:32.410Z,994.1
2022-11-16T00:41:32.409Z,994.1
2022-11-16T00:42:32.411Z,994.1
2022-11-16T00:43:32.421Z,994.1
2022-11-16T00:44:32.423Z,994
2022-11-16T00:45:32.419Z,994
2022-11-16T00:46:32.416Z,994
2022-11-16T00:47:32.409Z,994
2022-11-16T00:48:32.801Z,994
2022-11-16T00:49:32.417Z,994
2022-11-16T00:51:32.414Z,994.1
2022-11-16T00:52:32.412Z,994
2022-11-16T00:53:32.403Z,994
2022-11-16T00:54:32.412Z,994
2022-11-16T00:55:32.417Z,994
2022-11-16T00:56:32.409Z,994
2022-11-16T00:57:32.414Z,994
2022-11-16T00:58:32.941Z,994
2022-11-16T00:59:32.434Z,994
2022-11-16T01:00:32.462Z,994
2022-11-16T01:01:32.475Z,993.9
2022-11-16T01:02:32.414Z,993.9
2022-11-16T01:03:32.415Z,993.9
2022-11-16T01:04:32.410Z,993.9
2022-11-16T01:06:32.418Z,994
2022-11-16T01:07:32.503Z,993.9
2022-11-16T01:08:32.959Z,993.9
2022-11-16T01:09:32.407Z,993.9
2022-11-16T01:11:32.410Z,993.9
2022-11-16T01:12:32.415Z,993.9
2022-11-16T01:13:32.408Z,993.9
2022-11-16T01:14:32.427Z,993.9
2022-11-16T01:15:32.413Z,993.9
2022-11-16T01:16:32.411Z,993.8
2022-11-16T01:17:32.412Z,993.8
2022-11-16T01:18:32.778Z,993.8
2022-11-16T01:19:32.420Z,993.9
2022-11-16T01:20:32.419Z,993.8
2022-11-16T01:21:32.412Z,993.8
2022-11-16T01:22:32.416Z,993.8
2022-11-16T01:23:32.413Z,993.8
2022-11-16T01:24:32.409Z,993.9
2022-11-16T01:25:32.413Z,993.8
2022-11-16T01:26:32.413Z,993.8
2022-11-16T01:27:32.419Z,993.8
2022-11-16T01:28:32.846Z,993.8
2022-11-16T01:29:32.460Z,993.8
2022-11-16T01:30:32.435Z,993.8
2022-11-16T01:31:32.425Z,993.8
2022-11-16T01:32:32.419Z,993.8
2022-11-16T01:33:32.414Z,993.8
2022-11-16T01:34:32.476Z,993.8
2022-11-16T01:35:32.418Z,993.8
2022-11-16T01:36:32.420Z,993.8
2022-11-16T01:37:32.445Z,993.7
2022-11-16T01:38:32.790Z,993.8
2022-11-16T01:39:32.423Z,993.8
2022-11-16T01:40:32.439Z,993.8
2022-11-16T01:41:32.421Z,993.7
2022-11-16T01:42:32.421Z,993.8
2022-11-16T01:43:32.419Z,993.8
2022-11-16T01:45:32.422Z,993.7
2022-11-16T01:46:32.451Z,993.8
2022-11-16T01:47:32.411Z,993.8
2022-11-16T01:48:33.010Z,993.8
2022-11-16T01:50:32.420Z,993.7
2022-11-16T01:51:32.492Z,993.7
2022-11-16T01:52:32.419Z,993.7
2022-11-16T01:53:32.417Z,993.7
2022-11-16T01:54:32.424Z,993.7
2022-11-16T01:55:32.423Z,993.7
2022-11-16T01:56:32.420Z,993.7
2022-11-16T01:57:32.421Z,993.7
2022-11-16T01:58:32.780Z,993.7
2022-11-16T01:59:32.431Z,993.7
2022-11-16T02:00:32.420Z,993.8
2022-11-16T02:01:32.536Z,993.7
2022-11-16T02:02:32.427Z,993.8
2022-11-16T02:03:32.485Z,993.7
2022-11-16T02:04:32.426Z,993.8
2022-11-16T02:05:32.429Z,993.7
2022-11-16T02:06:32.444Z,993.7
2022-11-16T02:07:32.506Z,993.7
2022-11-16T02:08:32.861Z,993.7
2022-11-16T02:09:32.429Z,993.7
2022-11-16T02:10:32.427Z,993.7
2022-11-16T02:11:32.452Z,993.6
2022-11-16T02:12:32.429Z,993.6
2022-11-16T02:13:32.426Z,993.6
2022-11-16T02:14:32.438Z,993.6
2022-11-16T02:15:32.428Z,993.6
2022-11-16T02:16:32.429Z,993.6
2022-11-16T02:17:32.420Z,993.6
2022-11-16T02:18:32.831Z,993.6
2022-11-16T02:19:33.149Z,993.6
2022-11-16T02:20:32.428Z,993.6
2022-11-16T02:21:32.423Z,993.5
2022-11-16T02:22:32.427Z,993.6
2022-11-16T02:23:32.420Z,993.5
2022-11-16T02:24:32.430Z,993.6
2022-11-16T02:25:32.417Z,993.5
2022-11-16T02:27:32.428Z,993.5
2022-11-16T02:28:32.739Z,993.5
2022-11-16T02:29:32.423Z,993.5
2022-11-16T02:30:32.432Z,993.6
2022-11-16T02:31:32.427Z,993.6
2022-11-16T02:32:32.452Z,993.5
2022-11-16T02:33:32.429Z,993.5
2022-11-16T02:34:32.426Z,993.5
2022-11-16T02:35:32.425Z,993.5
2022-11-16T02:36:32.431Z,993.5
2022-11-16T02:37:32.499Z,993.5
2022-11-16T02:38:32.785Z,993.5
2022-11-16T02:39:32.429Z,993.4
2022-11-16T02:40:32.422Z,993.5
2022-11-16T02:41:32.428Z,993.4
2022-11-16T02:42:32.434Z,993.4
2022-11-16T02:43:32.431Z,993.4
2022-11-16T02:44:32.435Z,993.4
2022-11-16T02:45:32.461Z,993.3
2022-11-16T02:46:32.431Z,993.4
2022-11-16T02:47:32.431Z,993.3
2022-11-16T02:48:32.852Z,993.3
2022-11-16T02:49:32.433Z,993.4
2022-11-16T02:50:32.434Z,993.4
2022-11-16T02:51:32.496Z,993.4
2022-11-16T02:52:32.440Z,993.4
2022-11-16T02:53:32.443Z,993.4
2022-11-16T02:54:32.435Z,993.4
2022-11-16T02:55:32.427Z,993.3
2022-11-16T02:56:32.430Z,993.4
2022-11-16T02:57:32.432Z,993.3
2022-11-16T02:58:32.756Z,993.3
2022-11-16T02:59:32.472Z,993.3
2022-11-16T03:00:32.428Z,993.3
2022-11-16T03:01:32.541Z,993.2
2022-11-16T03:02:32.431Z,993.2
2022-11-16T03:03:32.460Z,993.3
2022-11-16T03:04:32.489Z,993.3
2022-11-16T03:06:32.428Z,993.2
2022-11-16T03:07:32.500Z,993.2
2022-11-16T03:08:32.967Z,993.2
2022-11-16T03:09:32.425Z,993.2
2022-11-16T03:11:32.433Z,993.3
2022-11-16T03:12:32.433Z,993.2
2022-11-16T03:13:32.435Z,993.2
2022-11-16T03:14:32.431Z,993.2
2022-11-16T03:15:32.429Z,993.2
2022-11-16T03:16:32.437Z,993.2
2022-11-16T03:17:32.436Z,993.2
2022-11-16T03:18:32.901Z,993.1
2022-11-16T03:19:39.274Z,993.1
2022-11-16T03:20:32.435Z,993.2
2022-11-16T03:21:32.439Z,993.1
2022-11-16T03:22:32.469Z,993.2
2022-11-16T03:23:32.436Z,993.1
2022-11-16T03:24:32.438Z,993.2
2022-11-16T03:25:32.436Z,993.2
2022-11-16T03:26:32.434Z,993.2
2022-11-16T03:27:32.438Z,993.1
2022-11-16T03:28:32.894Z,993.1
2022-11-16T03:29:32.441Z,993.1
2022-11-16T03:30:32.438Z,993.1
2022-11-16T03:31:32.433Z,993.1
2022-11-16T03:32:32.462Z,993.1
2022-11-16T03:33:32.443Z,993.1
2022-11-16T03:34:32.462Z,993
2022-11-16T03:35:32.446Z,993.1
2022-11-16T03:36:32.436Z,993.1
2022-11-16T03:37:32.437Z,993.1
2022-11-16T03:38:32.999Z,993.1
2022-11-16T03:40:32.439Z,993.1
2022-11-16T03:41:32.445Z,993.1
2022-11-16T03:42:32.448Z,993.1
2022-11-16T03:43:32.438Z,993.1
2022-11-16T03:45:32.443Z,993.1
2022-11-16T03:46:32.449Z,993.1
2022-11-16T03:47:32.448Z,993.1
2022-11-16T03:48:32.776Z,993.1
2022-11-16T03:50:32.486Z,993.1
2022-11-16T03:51:32.451Z,993.1
2022-11-16T03:52:32.438Z,993.2
2022-11-16T03:53:32.436Z,993.2
2022-11-16T03:54:32.454Z,993.2
2022-11-16T03:55:32.618Z,993.2
2022-11-16T03:56:32.442Z,993.2
2022-11-16T03:57:32.436Z,993.2
2022-11-16T03:58:32.767Z,993.2
2022-11-16T03:59:32.444Z,993.2
2022-11-16T04:00:32.482Z,993.2
2022-11-16T04:01:32.435Z,993.2
2022-11-16T04:02:32.458Z,993.3
2022-11-16T04:03:32.438Z,993.3
2022-11-16T04:04:32.441Z,993.3
2022-11-16T04:05:32.467Z,993.3
2022-11-16T04:06:32.445Z,993.3
2022-11-16T04:07:32.583Z,993.3
2022-11-16T04:08:32.887Z,993.3
2022-11-16T04:09:32.437Z,993.3
2022-11-16T04:10:32.484Z,993.3
2022-11-16T04:11:32.445Z,993.3
2022-11-16T04:12:32.500Z,993.3
2022-11-16T04:13:32.438Z,993.3
2022-11-16T04:14:32.447Z,993.3
2022-11-16T04:15:32.444Z,993.3
2022-11-16T04:16:32.444Z,993.3
2022-11-16T04:17:32.439Z,993.3
2022-11-16T04:18:32.791Z,993.3
2022-11-16T04:19:26.615Z,993.3
2022-11-16T04:20:32.449Z,993.3
2022-11-16T04:21:32.456Z,993.3
2022-11-16T04:22:32.446Z,993.3
2022-11-16T04:23:32.440Z,993.3
2022-11-16T04:24:32.494Z,993.4
2022-11-16T04:25:32.454Z,993.4
2022-11-16T04:27:32.443Z,993.4
2022-11-16T04:28:32.954Z,993.4
2022-11-16T04:29:32.441Z,993.4
2022-11-16T04:30:32.448Z,993.4
2022-11-16T04:32:32.445Z,993.4
2022-11-16T04:33:32.437Z,993.4
2022-11-16T04:34:32.451Z,993.4
2022-11-16T04:35:32.441Z,993.4
2022-11-16T04:36:32.478Z,993.4
2022-11-16T04:37:32.445Z,993.4
2022-11-16T04:38:32.908Z,993.5
2022-11-16T04:39:32.449Z,993.4
2022-11-16T04:40:32.451Z,993.5
2022-11-16T04:41:32.452Z,993.5
2022-11-16T04:42:32.447Z,993.5
2022-11-16T04:43:32.450Z,993.5
2022-11-16T04:44:32.447Z,993.5
2022-11-16T04:45:32.522Z,993.5
2022-11-16T04:46:32.504Z,993.5
2022-11-16T04:47:32.448Z,993.5
2022-11-16T04:48:32.832Z,993.5
2022-11-16T04:49:32.450Z,993.6
2022-11-16T04:50:32.448Z,993.6
2022-11-16T04:51:32.444Z,993.6
2022-11-16T04:52:32.446Z,993.6
2022-11-16T04:53:32.479Z,993.6
2022-11-16T04:54:32.460Z,993.6
2022-11-16T04:55:32.464Z,993.6
2022-11-16T04:56:32.451Z,993.6
2022-11-16T04:57:32.451Z,993.6
2022-11-16T04:58:32.914Z,993.6
2022-11-16T04:59:32.460Z,993.6
2022-11-16T05:00:32.451Z,993.6
2022-11-16T05:01:32.464Z,993.6
2022-11-16T05:02:32.450Z,993.6
2022-11-16T05:03:32.446Z,993.7
2022-11-16T05:04:32.448Z,993.6
2022-11-16T05:06:32.451Z,993.6
2022-11-16T05:07:32.604Z,993.6
2022-11-16T05:08:32.808Z,993.6
2022-11-16T05:09:32.463Z,993.6
2022-11-16T05:11:32.908Z,993.6
2022-11-16T05:12:32.455Z,993.6
2022-11-16T05:13:32.453Z,993.6
2022-11-16T05:14:32.462Z,993.6
2022-11-16T05:15:32.448Z,993.6
2022-11-16T05:16:32.456Z,993.6
2022-11-16T05:17:32.458Z,993.6
2022-11-16T05:18:32.951Z,993.6
2022-11-16T05:19:32.460Z,993.6
2022-11-16T05:20:32.454Z,993.6
2022-11-16T05:21:32.458Z,993.7
2022-11-16T05:22:32.454Z,993.6
2022-11-16T05:23:32.453Z,993.6
2022-11-16T05:24:32.490Z,993.6
2022-11-16T05:25:36.448Z,993.6
2022-11-16T05:26:32.460Z,993.6
2022-11-16T05:27:32.457Z,993.7
2022-11-16T05:28:32.909Z,993.7
2022-11-16T05:29:32.462Z,993.7
2022-11-16T05:30:32.539Z,993.7
2022-11-16T05:31:36.354Z,993.7
2022-11-16T05:32:32.457Z,993.7
2022-11-16T05:33:32.459Z,993.7
2022-11-16T05:34:32.456Z,993.8
2022-11-16T05:35:32.448Z,993.8
2022-11-16T05:36:32.459Z,993.8
2022-11-16T05:37:32.459Z,993.8
2022-11-16T05:38:32.905Z,993.7
2022-11-16T05:39:32.451Z,993.8
2022-11-16T05:40:32.454Z,993.7
2022-11-16T05:41:32.452Z,993.7
2022-11-16T05:42:32.509Z,993.7
2022-11-16T05:43:32.463Z,993.7
2022-11-16T05:45:32.453Z,993.8
2022-11-16T05:46:32.462Z,993.8
2022-11-16T05:47:32.468Z,993.8
2022-11-16T05:48:32.839Z,993.8
2022-11-16T05:50:32.461Z,993.9
2022-11-16T05:51:32.457Z,993.9
2022-11-16T05:52:32.457Z,993.9
2022-11-16T05:53:32.463Z,993.9
2022-11-16T05:54:32.456Z,993.9
2022-11-16T05:55:32.453Z,993.9
2022-11-16T05:56:32.514Z,993.9
2022-11-16T05:57:32.453Z,993.9
2022-11-16T05:58:32.947Z,994
2022-11-16T05:59:32.512Z,993.9
2022-11-16T06:00:32.464Z,994
2022-11-16T06:01:32.475Z,993.9
2022-11-16T06:02:32.456Z,994
2022-11-16T06:03:32.601Z,994.1
2022-11-16T06:05:36.301Z,994.1
2022-11-16T06:06:32.460Z,994
2022-11-16T06:07:32.649Z,994.1
2022-11-16T06:08:32.809Z,994.1
2022-11-16T06:09:32.468Z,994
2022-11-16T06:10:32.464Z,994.1
2022-11-16T06:11:35.682Z,994.1
2022-11-16T06:12:32.464Z,994.1
2022-11-16T06:13:32.454Z,994.1
2022-11-16T06:14:32.465Z,994.1
2022-11-16T06:15:32.456Z,994.1
2022-11-16T06:16:32.525Z,994.1
2022-11-16T06:17:32.464Z,994.1
2022-11-16T06:18:32.782Z,994.2
2022-11-16T06:19:32.832Z,994.2
2022-11-16T06:20:32.462Z,994.2
2022-11-16T06:21:32.462Z,994.1
2022-11-16T06:22:32.463Z,994.2
2022-11-16T06:23:32.460Z,994.2
2022-11-16T06:24:32.461Z,994.2
2022-11-16T06:25:32.471Z,994.2
2022-11-16T06:27:32.463Z,994.3
2022-11-16T06:28:32.777Z,994.2
2022-11-16T06:29:32.461Z,994.2
2022-11-16T06:30:32.462Z,994.1
2022-11-16T06:32:32.576Z,994.2
2022-11-16T06:33:33.872Z,994.2
2022-11-16T06:34:32.483Z,994.2
2022-11-16T06:35:32.469Z,994.2
2022-11-16T06:36:32.462Z,994.2
2022-11-16T06:37:32.465Z,994.3
2022-11-16T06:38:32.987Z,994.4
2022-11-16T06:39:32.461Z,994.4
2022-11-16T06:40:32.464Z,994.4
2022-11-16T06:41:32.473Z,994.4
2022-11-16T06:42:32.462Z,994.4
2022-11-16T06:43:32.468Z,994.4
2022-11-16T06:44:32.462Z,994.4
2022-11-16T06:45:32.468Z,994.4
2022-11-16T06:46:32.468Z,994.4
2022-11-16T06:47:32.508Z,994.4
2022-11-16T06:48:32.732Z,994.4
2022-11-16T06:49:32.457Z,994.5
2022-11-16T06:50:32.471Z,994.4
2022-11-16T06:51:32.460Z,994.4
2022-11-16T06:52:32.550Z,994.5
2022-11-16T06:53:32.470Z,994.5
2022-11-16T06:54:32.470Z,994.5
2022-11-16T06:55:32.478Z,994.5
2022-11-16T06:56:32.481Z,994.5
2022-11-16T06:57:32.460Z,994.6
2022-11-16T06:58:33.015Z,994.6
2022-11-16T06:59:32.471Z,994.6
2022-11-16T07:00:32.465Z,994.6
2022-11-16T07:01:32.542Z,994.6
2022-11-16T07:02:32.584Z,994.7
2022-11-16T07:04:32.459Z,994.7
2022-11-16T07:06:32.472Z,994.7
2022-11-16T07:07:32.560Z,994.7
2022-11-16T07:08:32.844Z,994.8
2022-11-16T07:09:32.525Z,994.8
2022-11-16T07:11:32.473Z,994.8
2022-11-16T07:12:32.507Z,994.7
2022-11-16T07:13:32.472Z,994.8
2022-11-16T07:14:32.540Z,994.8
2022-11-16T07:15:32.470Z,994.8
2022-11-16T07:16:32.466Z,994.8
2022-11-16T07:17:32.469Z,994.8
2022-11-16T07:18:32.845Z,994.8
2022-11-16T07:19:32.476Z,994.9
2022-11-16T07:20:32.479Z,994.9
2022-11-16T07:21:32.480Z,994.9
2022-11-16T07:22:32.469Z,994.9
2022-11-16T07:23:32.466Z,994.9
2022-11-16T07:24:32.462Z,994.9
2022-11-16T07:25:32.477Z,994.9
2022-11-16T07:26:32.498Z,994.9
2022-11-16T07:27:32.464Z,994.9
2022-11-16T07:28:32.974Z,994.9
2022-11-16T07:29:32.468Z,994.9
2022-11-16T07:30:32.473Z,994.8
2022-11-16T07:31:32.544Z,994.9
2022-11-16T07:32:32.491Z,994.9
2022-11-16T07:33:32.593Z,994.9
2022-11-16T07:34:32.485Z,995
2022-11-16T07:35:32.472Z,995
2022-11-16T07:36:32.465Z,995
2022-11-16T07:37:32.469Z,995
2022-11-16T07:40:32.471Z,995
2022-11-16T07:41:32.468Z,995.1
2022-11-16T07:42:32.476Z,995.1
2022-11-16T07:43:32.468Z,995.1
2022-11-16T07:45:32.525Z,995.2
2022-11-16T07:46:48.743Z,995.2
2022-11-16T07:47:32.489Z,995.2
2022-11-16T07:48:32.959Z,995.2
2022-11-16T07:50:32.482Z,995.3
2022-11-16T07:51:32.477Z,995.3
2022-11-16T07:52:32.475Z,995.3
2022-11-16T07:53:32.481Z,995.3
2022-11-16T07:54:32.475Z,995.4
2022-11-16T07:55:32.523Z,995.3
2022-11-16T07:56:32.469Z,995.4
2022-11-16T07:57:32.472Z,995.4
2022-11-16T07:58:32.943Z,995.5
2022-11-16T07:59:32.474Z,995.5
2022-11-16T08:00:32.473Z,995.5
2022-11-16T08:01:32.504Z,995.4
2022-11-16T08:03:32.472Z,995.4
2022-11-16T08:04:32.518Z,995.5
2022-11-16T08:05:32.469Z,995.5
2022-11-16T08:06:32.482Z,995.5
2022-11-16T08:07:32.553Z,995.6
2022-11-16T08:08:32.935Z,995.5
2022-11-16T08:09:32.468Z,995.6
2022-11-16T08:10:32.564Z,995.6
2022-11-16T08:11:32.479Z,995.6
2022-11-16T08:12:32.473Z,995.6
2022-11-16T08:13:32.479Z,995.6
2022-11-16T08:14:32.474Z,995.6
2022-11-16T08:15:32.486Z,995.6
2022-11-16T08:16:32.480Z,995.6
2022-11-16T08:17:32.477Z,995.6
2022-11-16T08:18:32.959Z,995.6
2022-11-16T08:19:32.477Z,995.6
2022-11-16T08:20:32.474Z,995.6
2022-11-16T08:21:32.488Z,995.6
2022-11-16T08:22:32.476Z,995.6
2022-11-16T08:23:32.483Z,995.6
2022-11-16T08:24:32.478Z,995.6
2022-11-16T08:25:32.478Z,995.6
2022-11-16T08:27:32.474Z,995.6
2022-11-16T08:28:32.864Z,995.6
2022-11-16T08:29:32.479Z,995.6
2022-11-16T08:30:32.474Z,995.6
2022-11-16T08:32:32.476Z,995.6
2022-11-16T08:33:32.473Z,995.6
2022-11-16T08:34:32.545Z,995.7
2022-11-16T08:35:32.604Z,995.7
2022-11-16T08:37:32.481Z,995.7
2022-11-16T08:38:32.937Z,995.7
2022-11-16T08:39:32.476Z,995.7
2022-11-16T08:40:32.488Z,995.8
2022-11-16T08:41:32.816Z,995.8
2022-11-16T08:42:32.479Z,995.8
2022-11-16T08:43:32.479Z,995.8
2022-11-16T08:44:32.479Z,995.8
2022-11-16T08:45:32.506Z,995.8
2022-11-16T08:46:32.490Z,995.8
2022-11-16T08:47:32.482Z,995.8
2022-11-16T08:48:32.891Z,995.9
2022-11-16T08:49:32.483Z,995.8
2022-11-16T08:50:44.274Z,995.8
2022-11-16T08:51:32.491Z,995.8
2022-11-16T08:52:32.482Z,995.9
2022-11-16T08:53:32.484Z,995.9
2022-11-16T08:54:32.480Z,995.9
2022-11-16T08:55:32.484Z,995.8
2022-11-16T08:56:32.485Z,995.9
2022-11-16T08:57:32.490Z,996
2022-11-16T08:58:32.811Z,996
2022-11-16T08:59:32.476Z,995.9
2022-11-16T09:00:32.478Z,996
2022-11-16T09:01:32.628Z,996
2022-11-16T09:02:32.481Z,996
2022-11-16T09:03:32.486Z,996
2022-11-16T09:04:36.877Z,996.1
2022-11-16T09:06:32.602Z,996.1
2022-11-16T09:07:32.629Z,996.1
2022-11-16T09:08:33.420Z,996.1
2022-11-16T09:09:32.476Z,996.1
2022-11-16T09:11:32.480Z,996.1
2022-11-16T09:12:32.481Z,996.2
2022-11-16T09:13:32.486Z,996.1
2022-11-16T09:14:32.495Z,996.2
2022-11-16T09:15:32.487Z,996.2
2022-11-16T09:16:32.486Z,996.2
2022-11-16T09:17:32.518Z,996.2
2022-11-16T09:18:32.879Z,996.2
2022-11-16T09:19:32.483Z,996.2
2022-11-16T09:20:32.481Z,996.2
2022-11-16T09:21:32.488Z,996.2
2022-11-16T09:22:32.487Z,996.3
2022-11-16T09:23:32.486Z,996.3
2022-11-16T09:24:32.477Z,996.3
2022-11-16T09:25:32.485Z,996.3
2022-11-16T09:26:32.488Z,996.3
2022-11-16T09:27:32.552Z,996.3
2022-11-16T09:28:32.981Z,996.4
2022-11-16T09:29:32.481Z,996.4
2022-11-16T09:30:32.536Z,996.4
2022-11-16T09:31:32.488Z,996.5
2022-11-16T09:32:32.485Z,996.4
2022-11-16T09:33:33.041Z,996.4
2022-11-16T09:34:32.491Z,996.4
2022-11-16T09:35:32.488Z,996.4
2022-11-16T09:36:32.500Z,996.4
2022-11-16T09:37:32.508Z,996.4
2022-11-16T09:38:47.451Z,996.4
2022-11-16T09:40:32.486Z,996.4
2022-11-16T09:41:32.482Z,996.4
2022-11-16T09:42:32.525Z,996.4
2022-11-16T09:43:32.959Z,996.4
2022-11-16T09:45:32.487Z,996.4
2022-11-16T09:46:32.492Z,996.4
2022-11-16T09:47:32.480Z,996.4
2022-11-16T09:48:32.484Z,996.4
2022-11-16T09:50:32.492Z,996.5
2022-11-16T09:51:32.500Z,996.4
2022-11-16T09:52:32.484Z,996.5
2022-11-16T09:53:33.013Z,996.5
2022-11-16T09:54:32.487Z,996.4
2022-11-16T09:55:32.481Z,996.5
2022-11-16T09:56:32.491Z,996.4
2022-11-16T09:57:32.492Z,996.4
2022-11-16T09:58:32.862Z,996.5
2022-11-16T09:59:32.545Z,996.4
2022-11-16T10:00:32.563Z,996.4
2022-11-16T10:01:32.498Z,996.4
2022-11-16T10:02:32.491Z,996.3
2022-11-16T10:03:32.857Z,996.4
2022-11-16T10:04:32.489Z,996.4
2022-11-16T10:05:32.489Z,996.4
2022-11-16T10:06:32.493Z,996.5
2022-11-16T10:07:32.629Z,996.4
2022-11-16T10:08:32.965Z,996.5
2022-11-16T10:09:32.574Z,996.5
2022-11-16T10:10:32.490Z,996.4
2022-11-16T10:11:32.487Z,996.3
2022-11-16T10:12:32.487Z,996.4
2022-11-16T10:13:32.824Z,996.4
2022-11-16T10:14:32.491Z,996.5
2022-11-16T10:15:32.484Z,996.4
2022-11-16T10:16:32.543Z,996.4
2022-11-16T10:17:32.487Z,996.5
2022-11-16T10:18:32.491Z,996.4
2022-11-16T10:19:32.488Z,996.4
2022-11-16T10:20:32.497Z,996.4
2022-11-16T10:21:32.559Z,996.4
2022-11-16T10:22:32.493Z,996.4
2022-11-16T10:23:33.010Z,996.4
2022-11-16T10:24:32.498Z,996.4
2022-11-16T10:25:32.492Z,996.3
2022-11-16T10:27:32.485Z,996.4
2022-11-16T10:28:32.485Z,996.4
2022-11-16T10:29:32.495Z,996.3
2022-11-16T10:30:32.493Z,996.4
2022-11-16T10:32:32.492Z,996.3
2022-11-16T10:33:32.741Z,996.4
2022-11-16T10:34:32.496Z,996.3
2022-11-16T10:35:32.495Z,996.3
2022-11-16T10:36:32.490Z,996.3
2022-11-16T10:37:32.498Z,996.3
2022-11-16T10:38:32.489Z,996.3
2022-11-16T10:39:32.525Z,996.3
2022-11-16T10:40:33.146Z,996.2
2022-11-16T10:41:32.494Z,996.2
2022-11-16T10:42:32.494Z,996.2
2022-11-16T10:43:33.012Z,996.1
2022-11-16T10:44:32.487Z,996.1
2022-11-16T10:45:32.496Z,996.1
2022-11-16T10:46:32.502Z,996.1
2022-11-16T10:47:34.050Z,996.2
2022-11-16T10:48:32.487Z,996.1
2022-11-16T10:49:32.503Z,996.1
2022-11-16T10:50:32.547Z,996
2022-11-16T10:51:32.499Z,996.1
2022-11-16T10:52:32.498Z,996.1
2022-11-16T10:53:32.981Z,996
2022-11-16T10:54:32.498Z,996.1
2022-11-16T10:55:32.496Z,996.1
2022-11-16T10:56:32.500Z,995.9
2022-11-16T10:57:32.497Z,995.9
2022-11-16T10:58:32.497Z,995.9
2022-11-16T10:59:32.491Z,995.9
2022-11-16T11:00:32.558Z,996
2022-11-16T11:01:32.497Z,995.9
2022-11-16T11:02:32.500Z,995.9
2022-11-16T11:03:32.859Z,995.9
2022-11-16T11:04:32.494Z,995.9
2022-11-16T11:06:32.518Z,995.8
2022-11-16T11:07:32.614Z,995.9
2022-11-16T11:08:32.495Z,995.8
2022-11-16T11:09:32.511Z,995.9
2022-11-16T11:11:32.493Z,995.9
2022-11-16T11:12:32.503Z,995.9
2022-11-16T11:13:32.879Z,995.9
2022-11-16T11:14:32.498Z,995.9
2022-11-16T11:15:32.497Z,996
2022-11-16T11:16:32.504Z,996
2022-11-16T11:17:32.500Z,995.9
2022-11-16T11:18:32.525Z,996
2022-11-16T11:19:32.500Z,995.9
2022-11-16T11:20:32.494Z,995.9
2022-11-16T11:21:32.494Z,995.9
2022-11-16T11:22:32.544Z,995.9
2022-11-16T11:23:32.765Z,995.9
2022-11-16T11:24:47.998Z,995.9
2022-11-16T11:25:32.509Z,995.9
2022-11-16T11:26:36.601Z,995.8
2022-11-16T11:27:32.550Z,995.9
2022-11-16T11:28:32.520Z,995.9
2022-11-16T11:29:32.524Z,995.9
2022-11-16T11:30:32.495Z,995.8
2022-11-16T11:31:32.502Z,995.8
2022-11-16T11:32:32.503Z,995.8
2022-11-16T11:33:32.915Z,995.7
2022-11-16T11:34:32.506Z,995.8
2022-11-16T11:35:32.502Z,995.7
2022-11-16T11:36:32.501Z,995.7
2022-11-16T11:37:32.505Z,995.7
2022-11-16T11:38:32.508Z,995.7
2022-11-16T11:39:32.603Z,995.7
2022-11-16T11:40:39.153Z,995.7
2022-11-16T11:41:32.640Z,995.7
2022-11-16T11:42:32.495Z,995.7
2022-11-16T11:43:32.811Z,995.6
2022-11-16T11:45:32.504Z,995.5
2022-11-16T11:46:59.742Z,995.6
2022-11-16T11:47:57.866Z,995.6
2022-11-16T11:48:32.499Z,995.6
2022-11-16T11:50:32.506Z,995.6
2022-11-16T11:51:32.506Z,995.6
2022-11-16T11:52:32.508Z,995.6
2022-11-16T11:53:32.810Z,995.6
2022-11-16T11:54:32.520Z,995.6
2022-11-16T11:55:32.511Z,995.6
2022-11-16T11:56:32.512Z,995.6
2022-11-16T11:57:32.505Z,995.5
2022-11-16T11:58:32.511Z,995.5
2022-11-16T11:59:32.505Z,995.5
2022-11-16T12:00:32.512Z,995.5
2022-11-16T12:01:32.520Z,995.5
2022-11-16T12:02:32.547Z,995.5
2022-11-16T12:03:32.991Z,995.5
2022-11-16T12:04:32.507Z,995.4
2022-11-16T12:05:32.500Z,995.4
2022-11-16T12:06:32.510Z,995.4
2022-11-16T12:07:32.589Z,995.4
2022-11-16T12:08:32.519Z,995.4
2022-11-16T12:09:32.500Z,995.5
2022-11-16T12:10:32.499Z,995.4
2022-11-16T12:11:32.507Z,995.4
2022-11-16T12:12:32.569Z,995.4
2022-11-16T12:13:33.054Z,995.3
2022-11-16T12:14:32.505Z,995.4
2022-11-16T12:15:32.514Z,995.3
2022-11-16T12:16:32.511Z,995.3
2022-11-16T12:17:32.502Z,995.3
2022-11-16T12:18:32.514Z,995.4
2022-11-16T12:19:32.514Z,995.3
2022-11-16T12:20:32.513Z,995.3
2022-11-16T12:21:32.511Z,995.3
2022-11-16T12:22:32.517Z,995.3
2022-11-16T12:23:32.933Z,995.3
2022-11-16T12:24:32.511Z,995.2
2022-11-16T12:25:32.507Z,995.2
2022-11-16T12:27:32.508Z,995.3
2022-11-16T12:28:32.512Z,995.3
2022-11-16T12:29:32.504Z,995.3
2022-11-16T12:30:32.562Z,995.3
2022-11-16T12:32:32.515Z,995.3
2022-11-16T12:33:32.868Z,995.2
2022-11-16T12:34:32.509Z,995.3
2022-11-16T12:35:32.507Z,995.3
2022-11-16T12:36:32.518Z,995.2
2022-11-16T12:37:32.511Z,995.3
2022-11-16T12:38:32.513Z,995.3
2022-11-16T12:39:32.516Z,995.3
2022-11-16T12:40:26.643Z,995.3
2022-11-16T12:41:32.510Z,995.3
2022-11-16T12:42:32.555Z,995.3
2022-11-16T12:43:32.789Z,995.4
2022-11-16T12:44:32.514Z,995.3
2022-11-16T12:45:32.852Z,995.3
2022-11-16T12:46:32.520Z,995.2
2022-11-16T12:47:32.507Z,995.2
2022-11-16T12:48:32.507Z,995.2
2022-11-16T12:49:32.512Z,995.2
2022-11-16T12:50:32.510Z,995.2
2022-11-16T12:51:32.507Z,995.2
2022-11-16T12:53:33.016Z,995.1
2022-11-16T12:54:32.602Z,995.1
2022-11-16T12:55:32.508Z,995.1
2022-11-16T12:56:32.511Z,995.1
2022-11-16T12:57:32.517Z,995.1
2022-11-16T12:58:32.510Z,995.1
2022-11-16T12:59:32.516Z,995
2022-11-16T13:00:32.522Z,995
2022-11-16T13:02:32.518Z,995
2022-11-16T13:03:32.896Z,995
2022-11-16T13:04:32.570Z,995
2022-11-16T13:06:32.521Z,994.9
2022-11-16T13:07:32.655Z,995
2022-11-16T13:08:32.533Z,994.9
2022-11-16T13:09:32.518Z,994.9
2022-11-16T13:11:32.521Z,994.8
2022-11-16T13:12:32.521Z,994.9
2022-11-16T13:13:36.965Z,994.9
2022-11-16T13:14:32.545Z,994.9
2022-11-16T13:15:32.532Z,994.9
2022-11-16T13:16:32.519Z,994.8
2022-11-16T13:17:32.521Z,994.8
2022-11-16T13:18:32.514Z,994.8
2022-11-16T13:19:32.518Z,994.8
2022-11-16T13:20:32.524Z,994.9
2022-11-16T13:21:32.565Z,994.9
2022-11-16T13:22:32.525Z,994.9
2022-11-16T13:23:32.980Z,994.9
2022-11-16T13:24:32.518Z,994.8
2022-11-16T13:25:32.526Z,994.8
2022-11-16T13:26:32.573Z,994.8
2022-11-16T13:27:32.520Z,994.7
2022-11-16T13:29:32.525Z,994.7
2022-11-16T13:30:32.521Z,994.7
2022-11-16T13:31:32.521Z,994.7
2022-11-16T13:32:32.522Z,994.6
2022-11-16T13:33:32.516Z,994.6
2022-11-16T13:34:32.519Z,994.6
2022-11-16T13:35:32.523Z,994.6
2022-11-16T13:36:32.538Z,994.6
2022-11-16T13:37:32.527Z,994.6
2022-11-16T13:38:32.839Z,994.6
2022-11-16T13:39:32.526Z,994.5
2022-11-16T13:40:32.540Z,994.6
2022-11-16T13:41:32.529Z,994.6
2022-11-16T13:42:32.520Z,994.5
2022-11-16T13:43:32.569Z,994.5
2022-11-16T13:44:32.528Z,994.5
2022-11-16T13:45:32.748Z,994.5